Upper Makefield, Pennsylvania
Current Conditions -  °F | °C
As of 12:53 PM on Thursday 30 Oct 2014 (Local Time) from KTTN Reporting Station
Broken Clouds Broken Clouds  
Wind Chill: 58°   Ceiling: 3600
Heat Index: 58°   Visibility: 10mi
Dew Point: 39°   Wind: 8mph
Humidity: 49%   Direction: 340°NNW
Pressure: 30.01"   Gusts: NA
Location:  40.2672°N, 74.9516°W
Report Text: KTTN 301653Z 34007KT 10SM BKN036 14/04 A3001 RMK AO2 SLP155 T01440039
Loading
Personal Weather Stations






























Interactive Weather Map
Tropical Storm Tracking
New forecast layout! Learn more

10-Day Weather Forecast

Advertisements
Track Severe Weather on mobile